Time;durP1;ratioP1;P1;durP2;ratioP2;P2;SDS_P1;SDS_P2;PMS_P1;PMS_P2;Temp;Humidity;BMP_temperature;BMP_pressure;BME280_temperature;BME280_humidity;BME280_pressure;Samples;Min_cycle;Max_cycle;Signal;HPM_P1;HPM_P2
2023/06/27 00:01:16;;;;;;;;;1.00;1.00;;;;;25.49;31.58;101806.56;4956661;28;46520;-42
2023/06/27 00:03:41;;;;;;;;;0.25;0.25;;;;;25.49;31.63;101801.25;4956339;28;56354;-41
2023/06/27 00:06:06;;;;;;;;;3.00;1.00;;;;;25.47;31.57;101800.50;4957447;28;45324;-42
2023/06/27 00:08:32;;;;;;;;;1.75;1.00;;;;;25.44;31.65;101798.00;4957059;28;45369;-41
2023/06/27 00:10:57;;;;;;;;;0.75;0.75;;;;;25.40;31.41;101796.50;4956841;28;45340;-46
2023/06/27 00:13:22;;;;;;;;;1.00;1.00;;;;;25.40;31.33;101802.66;4956568;28;46842;-44
2023/06/27 00:15:52;;;;;;;;;2.00;1.00;;;;;25.39;31.73;101800.09;4957010;28;45808;-43
2023/06/27 00:18:21;;;;;;;;;1.00;1.00;;;;;25.38;31.26;101804.53;4956894;28;45515;-42
2023/06/27 00:20:47;;;;;;;;;1.25;1.25;;;;;25.37;31.87;101807.28;4956716;28;46088;-39
2023/06/27 00:23:16;;;;;;;;;0.00;0.00;;;;;25.35;31.68;101801.19;4956401;28;45558;-45
2023/06/27 00:25:42;;;;;;;;;1.25;1.25;;;;;25.35;31.64;101809.16;4956776;28;45471;-43
2023/06/27 00:28:07;;;;;;;;;1.25;1.25;;;;;25.34;31.76;101807.47;4957392;28;45551;-42
2023/06/27 00:30:33;;;;;;;;;1.00;1.00;;;;;25.31;31.55;101811.16;4955097;28;52360;-42
2023/06/27 00:32:58;;;;;;;;;1.00;1.00;;;;;25.31;31.62;101812.00;4956745;28;45339;-48
2023/06/27 00:35:23;;;;;;;;;2.00;1.00;;;;;25.30;32.07;101806.78;4956781;28;45397;-44
2023/06/27 00:37:48;;;;;;;;;1.75;1.75;;;;;25.30;31.52;101810.28;4957054;28;45808;-47
2023/06/27 00:40:14;;;;;;;;;1.00;1.00;;;;;25.30;32.22;101814.75;4956250;28;46296;-44
2023/06/27 00:42:39;;;;;;;;;2.50;1.00;;;;;25.26;32.22;101803.47;4956496;28;45313;-42
2023/06/27 00:45:07;;;;;;;;;2.50;1.50;;;;;25.29;31.62;101805.09;4956744;28;46064;-40
2023/06/27 00:47:33;;;;;;;;;1.00;1.00;;;;;25.30;31.94;101804.13;4956729;28;45214;-44
2023/06/27 00:49:59;;;;;;;;;1.25;1.25;;;;;25.30;32.06;101812.09;4956482;28;45612;-48
2023/06/27 00:52:25;;;;;;;;;1.75;1.00;;;;;25.27;32.02;101802.53;4955051;28;45323;-45
2023/06/27 00:54:51;;;;;;;;;1.00;1.00;;;;;25.29;31.82;101816.56;4957885;28;45337;-43
2023/06/27 00:57:17;;;;;;;;;1.75;1.00;;;;;25.28;31.75;101814.84;4959913;28;45448;-47
2023/06/27 00:59:43;;;;;;;;;1.00;1.00;;;;;25.29;32.26;101813.03;4959735;28;46327;-45
2023/06/27 01:02:09;;;;;;;;;0.50;0.50;;;;;25.28;32.23;101811.34;4959530;28;45400;-42
2023/06/27 01:04:34;;;;;;;;;3.00;1.00;;;;;25.30;32.03;101818.25;4958715;28;45471;-47
2023/06/27 01:07:10;;;;;;;;;2.00;2.00;;;;;25.31;31.92;101819.13;4960003;28;45572;-41
2023/06/27 01:09:54;;;;;;;;;0.50;0.50;;;;;25.30;32.27;101812.94;4958454;28;46349;-44
2023/06/27 01:12:27;;;;;;;;;1.75;1.00;;;;;25.28;31.47;101812.22;4959403;28;45854;-45
2023/06/27 01:14:57;;;;;;;;;0.25;0.25;;;;;25.26;31.84;101802.59;4959738;28;45341;-46
2023/06/27 01:17:24;;;;;;;;;0.50;0.50;;;;;25.27;31.45;101806.97;4959599;28;45214;-46
2023/06/27 01:19:52;;;;;;;;;1.00;1.00;;;;;25.27;31.60;101799.88;4959476;28;46408;-45
2023/06/27 01:22:22;;;;;;;;;2.50;1.00;;;;;25.27;31.60;101806.97;4957788;28;45788;-48
2023/06/27 01:24:47;;;;;;;;;1.00;1.00;;;;;25.24;31.52;101802.72;4959605;28;45322;-46
2023/06/27 01:27:14;;;;;;;;;0.25;0.25;;;;;25.21;31.46;101797.59;4959505;28;45277;-39
2023/06/27 01:29:40;;;;;;;;;0.00;0.00;;;;;25.18;31.63;101797.78;4959352;28;46182;-45
2023/06/27 01:32:23;;;;;;;;;1.50;1.00;;;;;25.21;31.44;101802.06;4959631;28;45342;-42
2023/06/27 01:35:13;;;;;;;;;0.00;0.00;;;;;25.16;31.12;101799.69;4959587;28;45318;-47
2023/06/27 01:37:45;;;;;;;;;0.00;0.00;;;;;25.17;30.96;101798.72;4959919;28;45375;-43
2023/06/27 01:40:14;;;;;;;;;1.00;1.00;;;;;25.16;31.48;101803.16;4958940;28;46429;-44
2023/06/27 01:42:42;;;;;;;;;1.00;0.75;;;;;25.14;31.40;101793.59;4959041;28;45822;-41
2023/06/27 01:45:09;;;;;;;;;2.00;0.25;;;;;25.12;31.63;101798.13;4959635;28;45462;-46
2023/06/27 01:47:40;;;;;;;;;1.00;1.00;;;;;25.12;31.64;101787.53;4959804;28;45519;-48
2023/06/27 01:50:07;;;;;;;;;3.25;0.75;;;;;25.13;31.83;101789.25;4959234;28;46135;-39
2023/06/27 01:52:32;;;;;;;;;0.75;0.75;;;;;25.14;31.35;101788.31;4958799;28;45620;-42
2023/06/27 01:54:59;;;;;;;;;0.00;0.00;;;;;25.09;31.66;101788.56;4959038;28;45385;-47
2023/06/27 01:57:25;;;;;;;;;2.25;1.00;;;;;25.07;31.03;101789.63;4959164;28;45289;-47
2023/06/27 01:59:50;;;;;;;;;0.50;0.50;;;;;25.08;31.47;101796.63;4958888;28;46121;-48
2023/06/27 02:02:15;;;;;;;;;0.00;0.00;;;;;25.04;31.62;101785.34;4958757;28;45458;-40
2023/06/27 02:04:41;;;;;;;;;1.00;1.00;;;;;25.08;30.93;101793.97;4958111;28;48787;-39
2023/06/27 02:07:06;;;;;;;;;1.00;1.00;;;;;25.06;31.23;101782.59;4958938;28;45558;-41
2023/06/27 02:09:31;;;;;;;;;3.50;0.25;;;;;25.04;31.12;101795.09;4958309;28;49028;-41
2023/06/27 02:11:56;;;;;;;;;0.00;0.00;;;;;25.04;31.91;101795.09;4958545;28;47825;-47
2023/06/27 02:14:22;;;;;;;;;0.00;0.00;;;;;25.03;31.14;101796.03;4958562;28;45317;-48
2023/06/27 02:16:47;;;;;;;;;2.00;0.00;;;;;25.01;31.29;101796.16;4958967;28;45394;-48
2023/06/27 02:19:13;;;;;;;;;0.50;0.50;;;;;25.04;31.79;101795.09;4958464;28;46418;-46
2023/06/27 02:21:38;;;;;;;;;1.00;1.00;;;;;25.04;31.74;101797.75;4959014;28;45418;-48
2023/06/27 02:24:04;;;;;;;;;2.00;1.00;;;;;25.01;31.93;101791.69;4958979;28;45837;-44
2023/06/27 02:26:29;;;;;;;;;0.00;0.00;;;;;25.01;32.01;101797.00;4958647;28;45346;-43
2023/06/27 02:28:54;;;;;;;;;1.00;1.00;;;;;25.01;32.26;101801.44;4958556;28;45461;-42
2023/06/27 02:31:20;;;;;;;;;0.75;0.75;;;;;25.00;31.74;101805.88;4957620;28;59404;-45
2023/06/27 02:33:45;;;;;;;;;0.00;0.00;;;;;25.00;32.43;101802.41;4958729;28;45619;-44
2023/06/27 02:36:10;;;;;;;;;0.00;0.00;;;;;24.99;31.92;101798.88;4958639;28;45370;-50
2023/06/27 02:38:36;;;;;;;;;4.00;1.00;;;;;24.97;32.76;101800.75;4958751;28;45397;-47
2023/06/27 02:41:01;;;;;;;;;1.00;1.00;;;;;24.94;32.14;101794.78;4958515;28;45521;-48
2023/06/27 02:43:27;;;;;;;;;1.00;1.00;;;;;24.97;32.83;101805.22;4957705;28;57456;-48
2023/06/27 02:45:52;;;;;;;;;2.00;1.00;;;;;24.94;33.03;101806.25;4958696;28;45393;-44
2023/06/27 02:48:17;;;;;;;;;1.75;0.50;;;;;24.95;32.78;101807.09;4957944;28;46125;-46
2023/06/27 02:50:46;;;;;;;;;1.00;1.00;;;;;24.93;32.94;101812.50;4958061;28;49456;-48
2023/06/27 02:53:11;;;;;;;;;1.50;1.00;;;;;24.93;32.85;101809.84;4958199;28;45477;-47
2023/06/27 02:55:36;;;;;;;;;3.25;2.00;;;;;24.91;32.43;101805.59;4958776;28;45443;-42
2023/06/27 02:58:02;;;;;;;;;1.00;1.00;;;;;24.92;32.86;101802.84;4958014;28;47950;-44
2023/06/27 03:00:27;;;;;;;;;4.00;1.25;;;;;24.93;32.47;101803.69;4958000;28;45443;-41
2023/06/27 03:02:52;;;;;;;;;1.75;1.75;;;;;24.92;32.95;101813.44;4961383;28;45302;-42
2023/06/27 03:05:18;;;;;;;;;3.25;1.00;;;;;24.92;32.47;101813.44;4977695;28;45408;-42
2023/06/27 03:07:43;;;;;;;;;1.00;1.00;;;;;24.91;32.72;101810.91;4977622;28;45836;-46
2023/06/27 03:10:09;;;;;;;;;0.00;0.00;;;;;24.89;33.23;101807.47;4976776;28;69349;-42
2023/06/27 03:12:34;;;;;;;;;1.00;0.50;;;;;24.90;33.28;101804.72;4977840;28;45328;-47
2023/06/27 03:15:03;;;;;;;;;1.00;1.00;;;;;24.89;32.72;101797.72;4977587;28;45262;-45
2023/06/27 03:17:29;;;;;;;;;3.00;2.00;;;;;24.89;33.05;101796.88;4976884;28;45662;-46
2023/06/27 03:19:54;;;;;;;;;1.75;1.00;;;;;24.92;33.23;101797.53;4977202;28;45339;-46
2023/06/27 03:22:19;;;;;;;;;1.00;1.00;;;;;24.89;33.28;101799.53;4976837;28;45266;-45
2023/06/27 03:24:45;;;;;;;;;1.00;1.00;;;;;24.89;32.90;101794.22;4977050;28;46897;-46
2023/06/27 03:27:10;;;;;;;;;1.00;1.00;;;;;24.88;33.28;101796.00;4976528;28;55214;-44
2023/06/27 03:29:35;;;;;;;;;1.25;1.25;;;;;24.83;33.33;101790.13;4977372;28;45405;-42
2023/06/27 03:32:01;;;;;;;;;1.25;1.25;;;;;24.83;32.99;101792.78;4977173;28;45457;-43
2023/06/27 03:34:26;;;;;;;;;3.50;2.00;;;;;24.82;33.34;101796.38;4977134;28;45490;-40
2023/06/27 03:36:51;;;;;;;;;1.00;1.00;;;;;24.82;33.52;101794.56;4976972;28;46654;-45
2023/06/27 03:39:17;;;;;;;;;2.50;1.00;;;;;24.82;33.42;101783.13;4976441;28;49260;-46
2023/06/27 03:41:42;;;;;;;;;1.75;1.75;;;;;24.81;33.53;101789.34;4976984;28;45420;-45
2023/06/27 03:44:08;;;;;;;;;1.00;1.00;;;;;24.82;33.18;101791.06;4975947;28;45597;-47
2023/06/27 03:46:34;;;;;;;;;1.00;1.00;;;;;24.81;33.13;101787.56;4977063;28;46429;-48
2023/06/27 03:48:59;;;;;;;;;1.00;1.00;;;;;24.81;33.51;101784.91;4976945;28;45334;-48
2023/06/27 03:51:25;;;;;;;;;4.50;2.75;;;;;24.80;33.58;101777.91;4976623;28;45477;-44
2023/06/27 03:53:51;;;;;;;;;1.25;0.50;;;;;24.81;33.25;101784.06;4977037;28;45329;-43
2023/06/27 03:56:16;;;;;;;;;1.00;1.00;;;;;24.81;33.15;101786.72;4976395;28;45673;-41
2023/06/27 03:58:41;;;;;;;;;2.00;1.00;;;;;24.80;33.54;101793.81;4976775;28;45285;-43
2023/06/27 04:01:07;;;;;;;;;2.25;2.25;;;;;24.80;33.64;101787.66;4976370;28;56581;-44
2023/06/27 04:03:32;;;;;;;;;2.50;1.00;;;;;24.79;33.67;101785.94;4976442;28;45304;-44
2023/06/27 04:05:57;;;;;;;;;1.00;1.00;;;;;24.76;33.14;101786.09;4976189;28;50808;-44
2023/06/27 04:08:23;;;;;;;;;1.00;1.00;;;;;24.77;33.84;101788.69;4976079;28;45403;-43
2023/06/27 04:10:49;;;;;;;;;1.25;1.25;;;;;24.76;33.49;101786.97;4976566;28;45291;-46
2023/06/27 04:13:14;;;;;;;;;4.00;2.00;;;;;24.73;33.81;101781.84;4976468;28;45503;-47
2023/06/27 04:15:39;;;;;;;;;2.00;1.50;;;;;24.76;33.46;101786.09;4974980;28;48258;-47
2023/06/27 04:18:05;;;;;;;;;1.25;1.00;;;;;24.72;33.84;101793.41;4976819;28;45471;-42
2023/06/27 04:20:31;;;;;;;;;1.00;1.00;;;;;24.69;34.18;101781.19;4976294;28;45288;-43
2023/06/27 04:22:56;;;;;;;;;2.00;2.00;;;;;24.70;34.08;101796.16;4976514;28;45413;-42
2023/06/27 04:25:22;;;;;;;;;1.00;1.00;;;;;24.68;34.07;101790.06;4975432;28;59614;-43
2023/06/27 04:27:47;;;;;;;;;2.00;1.00;;;;;24.69;34.38;101793.59;4975798;28;56644;-45
2023/06/27 04:30:13;;;;;;;;;1.00;1.00;;;;;24.69;34.11;101798.91;4979159;28;45434;-42
2023/06/27 04:32:38;;;;;;;;;2.00;1.00;;;;;24.66;34.27;101797.22;4980177;28;45328;-46
2023/06/27 04:35:04;;;;;;;;;1.00;1.00;;;;;24.69;34.10;101802.38;4979884;28;46484;-39
2023/06/27 04:37:29;;;;;;;;;4.00;2.00;;;;;24.68;34.69;101792.72;4978164;28;45786;-44
2023/06/27 04:39:55;;;;;;;;;2.25;1.00;;;;;24.68;34.73;101795.38;4960185;28;45325;-43
2023/06/27 04:42:20;;;;;;;;;2.00;2.00;;;;;24.64;34.31;101793.81;4958595;28;45562;-46
2023/06/27 04:44:45;;;;;;;;;2.00;1.00;;;;;24.66;34.84;101794.56;4959846;28;47154;-44
2023/06/27 04:47:11;;;;;;;;;3.75;2.00;;;;;24.64;34.34;101785.00;4959701;28;47033;-44
2023/06/27 04:49:36;;;;;;;;;3.00;2.00;;;;;24.61;34.92;101785.19;4960230;28;48669;-45
2023/06/27 04:52:01;;;;;;;;;3.25;2.00;;;;;24.57;34.73;101786.31;4960315;28;45586;-40
2023/06/27 04:54:27;;;;;;;;;2.00;2.00;;;;;24.50;34.58;101783.16;4959541;28;45520;-45
2023/06/27 04:56:52;;;;;;;;;0.00;0.00;;;;;24.45;35.22;101786.09;4959611;28;55133;-43
2023/06/27 04:59:19;;;;;;;;;1.00;1.00;;;;;24.41;35.40;101781.03;4959637;28;45298;-43
2023/06/27 05:01:44;;;;;;;;;4.25;2.00;;;;;24.35;35.44;101783.09;4960017;28;45271;-42
2023/06/27 05:04:10;;;;;;;;;3.00;1.00;;;;;24.31;35.22;101775.41;4959258;28;46342;-46
2023/06/27 05:06:35;;;;;;;;;1.00;1.00;;;;;24.28;35.17;101775.56;4959565;28;53932;-45
2023/06/27 05:09:02;;;;;;;;;3.50;2.00;;;;;24.24;35.71;101775.78;4959759;28;45408;-46
2023/06/27 05:11:27;;;;;;;;;1.00;1.00;;;;;24.21;35.58;101781.22;4959601;28;45533;-39
2023/06/27 05:13:53;;;;;;;;;1.00;1.00;;;;;24.16;35.68;101782.44;4958285;28;47009;-44
2023/06/27 05:16:19;;;;;;;;;2.25;1.25;;;;;24.12;36.04;101784.41;4959410;28;46012;-46
2023/06/27 05:18:45;;;;;;;;;3.00;2.00;;;;;24.11;36.35;101782.69;4959658;28;45335;-47
2023/06/27 05:21:11;;;;;;;;;2.00;2.00;;;;;24.08;36.57;101791.66;4958201;28;45405;-47
2023/06/27 05:23:36;;;;;;;;;1.25;1.25;;;;;24.05;36.40;101797.13;4959680;28;46375;-46
2023/06/27 05:26:01;;;;;;;;;2.00;2.00;;;;;24.02;36.21;101793.78;4959544;28;45281;-42
2023/06/27 05:28:27;;;;;;;;;1.00;1.00;;;;;23.98;36.65;101805.47;4958026;28;45322;-44
2023/06/27 05:30:52;;;;;;;;;3.00;2.00;;;;;23.94;36.42;101794.19;4959312;28;47578;-47
2023/06/27 05:33:17;;;;;;;;;5.25;2.25;;;;;23.86;36.92;101793.75;4959001;28;46461;-46
2023/06/27 05:35:43;;;;;;;;;5.50;2.00;;;;;23.84;37.28;101804.41;4957941;28;45314;-46
2023/06/27 05:38:08;;;;;;;;;2.00;2.00;;;;;23.83;37.16;101809.78;4959885;28;45361;-44
2023/06/27 05:40:34;;;;;;;;;2.50;2.00;;;;;23.76;37.38;101796.88;4958573;28;45214;-49
2023/06/27 05:42:59;;;;;;;;;2.25;2.00;;;;;23.78;37.73;101808.25;4959113;28;45253;-48
2023/06/27 05:45:25;;;;;;;;;2.50;1.75;;;;;23.75;37.77;101811.06;4958726;28;45226;-44
2023/06/27 05:47:50;;;;;;;;;3.00;2.00;;;;;23.74;37.67;101798.78;4959383;28;45279;-43
2023/06/27 05:50:16;;;;;;;;;2.00;2.00;;;;;23.72;38.13;101792.69;4958940;28;45399;-43
2023/06/27 05:52:41;;;;;;;;;4.00;2.75;;;;;23.71;38.11;101798.06;4958849;28;46732;-42
2023/06/27 05:55:07;;;;;;;;;2.00;2.00;;;;;23.68;38.61;101785.84;4959188;28;45464;-45
2023/06/27 05:57:32;;;;;;;;;2.75;1.50;;;;;23.66;38.20;101790.38;4958720;28;45407;-40
2023/06/27 05:59:57;;;;;;;;;3.00;1.00;;;;;23.62;38.47;101788.84;4959177;28;45332;-45
2023/06/27 06:02:23;;;;;;;;;1.00;1.00;;;;;23.60;38.34;101785.41;4958495;28;46722;-43
2023/06/27 06:04:48;;;;;;;;;4.33;3.67;;;;;23.59;38.79;101789.00;4957954;28;61406;-43
2023/06/27 06:07:14;;;;;;;;;3.50;2.00;;;;;23.56;38.61;101790.03;4957497;28;45393;-46
2023/06/27 06:09:39;;;;;;;;;2.00;2.00;;;;;23.56;39.20;101787.38;4959101;28;45640;-47
2023/06/27 06:12:05;;;;;;;;;2.00;2.00;;;;;23.58;38.82;101787.28;4959021;28;45324;-46
2023/06/27 06:14:31;;;;;;;;;6.00;3.00;;;;;23.57;39.30;101785.56;4958241;28;45410;-45
2023/06/27 06:16:56;;;;;;;;;3.50;2.00;;;;;23.52;39.13;101782.34;4958743;28;45355;-48
2023/06/27 06:19:21;;;;;;;;;3.25;3.00;;;;;23.55;39.39;101788.31;4958648;28;45515;-42
2023/06/27 06:21:47;;;;;;;;;3.00;3.00;;;;;23.55;39.38;101790.09;4954981;28;46244;-46
2023/06/27 06:24:14;;;;;;;;;3.00;3.00;;;;;23.56;39.33;101789.16;4957646;28;45297;-49
2023/06/27 06:26:39;;;;;;;;;4.00;2.00;;;;;23.56;39.60;101782.09;4958604;28;45294;-45
2023/06/27 06:29:04;;;;;;;;;2.75;2.00;;;;;23.56;39.40;101789.16;4958853;28;45588;-46
2023/06/27 06:31:30;;;;;;;;;3.25;1.50;;;;;23.56;39.69;101794.44;4958075;28;46245;-44
2023/06/27 06:33:57;;;;;;;;;1.75;1.00;;;;;23.56;39.83;101794.44;4958381;28;45212;-44
2023/06/27 06:36:23;;;;;;;;;2.00;2.00;;;;;23.53;39.71;101790.19;4958070;28;45408;-47
2023/06/27 06:38:48;;;;;;;;;3.00;1.50;;;;;23.54;39.45;101796.31;4958556;28;45412;-46
2023/06/27 06:41:13;;;;;;;;;4.50;2.25;;;;;23.54;39.92;101797.19;4958174;28;46239;-42
2023/06/27 06:43:39;;;;;;;;;4.25;2.00;;;;;23.52;40.18;101792.91;4958156;28;46097;-43
2023/06/27 06:46:05;;;;;;;;;4.00;3.25;;;;;23.52;39.80;101793.75;4958509;28;45941;-43
2023/06/27 06:48:30;;;;;;;;;4.00;2.50;;;;;23.52;39.92;101795.56;4958178;28;45418;-42
2023/06/27 06:50:55;;;;;;;;;5.25;4.25;;;;;23.51;39.88;101799.16;4957712;28;46039;-46
2023/06/27 06:53:21;;;;;;;;;2.00;0.00;;;;;23.51;39.86;101807.94;4957591;28;45443;-45
2023/06/27 06:55:46;;;;;;;;;2.75;2.75;;;;;23.49;40.12;101787.78;4957728;28;49633;-44
2023/06/27 06:58:12;;;;;;;;;4.75;3.00;;;;;23.49;40.17;101798.38;4957925;28;45311;-46
2023/06/27 07:00:38;;;;;;;;;3.00;3.00;;;;;23.50;40.21;101800.06;4958151;28;45486;-46
2023/06/27 07:03:04;;;;;;;;;5.00;3.00;;;;;23.50;39.95;101794.78;4957944;28;45322;-45
2023/06/27 07:05:30;;;;;;;;;6.25;3.00;;;;;23.47;40.06;101801.09;4957802;28;45185;-48
2023/06/27 07:07:55;;;;;;;;;2.50;2.00;;;;;23.49;39.87;101793.91;4958255;28;45183;-47
2023/06/27 07:10:21;;;;;;;;;1.25;1.25;;;;;23.50;40.34;101797.44;4957489;28;47758;-46
2023/06/27 07:12:46;;;;;;;;;8.50;3.00;;;;;23.52;40.37;101798.22;4957854;28;45436;-46
2023/06/27 07:15:11;;;;;;;;;9.75;3.00;;;;;23.52;40.05;101801.69;4957585;28;45348;-45
2023/06/27 07:17:37;;;;;;;;;4.25;3.75;;;;;23.54;40.29;101796.31;4958402;28;45401;-48
2023/06/27 07:20:04;;;;;;;;;4.75;2.00;;;;;23.53;40.24;101794.63;4957312;28;53343;-46
2023/06/27 07:22:29;;;;;;;;;3.00;3.00;;;;;23.55;40.53;101801.53;4957569;28;45459;-47
2023/06/27 07:24:55;;;;;;;;;2.00;2.00;;;;;23.56;39.86;101805.03;4956468;28;45442;-47
2023/06/27 07:27:20;;;;;;;;;4.50;3.00;;;;;23.58;40.08;101809.31;4956760;28;45614;-49
2023/06/27 07:29:45;;;;;;;;;3.25;2.25;;;;;23.65;40.36;101804.53;4956777;28;46173;-44
2023/06/27 07:32:11;;;;;;;;;5.00;2.00;;;;;23.69;40.08;101814.03;4956557;28;45472;-43
2023/06/27 07:34:39;;;;;;;;;4.50;3.00;;;;;23.68;40.15;101799.09;4957123;28;45563;-44
2023/06/27 07:37:05;;;;;;;;;3.50;3.00;;;;;23.69;40.33;101806.09;4954980;28;45538;-45
2023/06/27 07:39:30;;;;;;;;;5.75;4.00;;;;;23.71;40.20;101804.22;4956472;28;46472;-44
2023/06/27 07:41:56;;;;;;;;;4.75;3.00;;;;;23.74;39.94;101797.91;4956156;28;58676;-42
2023/06/27 07:44:21;;;;;;;;;5.25;3.00;;;;;23.75;39.89;101804.91;4956264;28;45508;-40
2023/06/27 07:46:46;;;;;;;;;4.25;2.00;;;;;23.80;39.73;101809.94;4956856;28;45572;-46
2023/06/27 07:49:12;;;;;;;;;4.25;2.50;;;;;23.83;39.53;101809.78;4954679;28;46236;-40
2023/06/27 07:51:37;;;;;;;;;3.75;2.75;;;;;23.85;39.89;101805.28;4957040;28;45422;-44
2023/06/27 07:54:03;;;;;;;;;7.00;3.50;;;;;23.84;39.55;101809.69;4957200;28;45341;-44
2023/06/27 07:56:29;;;;;;;;;2.75;2.75;;;;;23.89;39.87;101812.09;4957189;28;45585;-43
2023/06/27 07:58:54;;;;;;;;;5.75;3.25;;;;;23.93;39.58;101813.66;4956949;28;45582;-42
2023/06/27 08:01:20;;;;;;;;;4.75;2.00;;;;;23.95;39.77;101817.09;4955454;28;45564;-45
2023/06/27 08:03:45;;;;;;;;;4.00;4.00;;;;;23.98;39.29;101811.63;4955985;28;45398;-47
2023/06/27 08:06:12;;;;;;;;;3.25;3.25;;;;;23.98;39.61;101814.28;4957042;28;45634;-43
2023/06/27 08:08:38;;;;;;;;;2.25;2.25;;;;;24.03;39.33;101816.69;4957131;28;46523;-48
2023/06/27 08:11:03;;;;;;;;;4.25;2.00;;;;;24.04;39.47;101811.31;4956975;28;45367;-44
2023/06/27 08:13:29;;;;;;;;;4.00;2.00;;;;;24.04;39.45;101803.34;4955500;28;45276;-40
2023/06/27 08:15:54;;;;;;;;;4.25;2.00;;;;;24.07;39.23;101811.13;4957146;28;45679;-43
2023/06/27 08:18:19;;;;;;;;;4.50;3.25;;;;;24.11;39.38;101810.94;4954585;28;62460;-43
2023/06/27 08:20:45;;;;;;;;;3.00;3.00;;;;;24.09;39.25;101798.66;4956622;28;45706;-47
2023/06/27 08:23:10;;;;;;;;;3.25;1.00;;;;;24.08;39.02;101790.78;4939090;28;45307;-46
2023/06/27 08:25:35;;;;;;;;;2.00;2.00;;;;;24.12;39.12;101797.63;4957290;28;45334;-45
2023/06/27 08:28:01;;;;;;;;;3.00;1.00;;;;;24.14;39.19;101795.78;4956320;28;52778;-44
2023/06/27 08:30:27;;;;;;;;;0.00;0.00;;;;;24.16;39.11;101795.66;4956435;28;45392;-44
2023/06/27 08:32:54;;;;;;;;;4.00;2.50;;;;;24.18;38.69;101799.09;4956798;28;45398;-47
2023/06/27 10:31:47;;;;;;;;;3.75;1.50;;;;;24.83;35.12;101698.16;5194429;23;46810;-43
2023/06/27 10:34:21;;;;;;;;;2.50;1.00;;;;;24.84;35.57;101704.34;4938918;28;45355;-43
2023/06/27 10:37:05;;;;;;;;;1.50;1.50;;;;;24.85;35.13;101696.28;4936990;28;46963;-46
2023/06/27 10:39:39;;;;;;;;;1.25;1.25;;;;;24.85;35.42;101693.63;4938424;28;45388;-45
2023/06/27 10:42:06;;;;;;;;;2.50;2.00;;;;;24.88;35.14;101695.25;4938035;28;45520;-44
2023/06/27 10:44:48;;;;;;;;;2.00;2.00;;;;;24.89;34.93;101698.75;4938685;28;45469;-43
2023/06/27 10:47:16;;;;;;;;;1.50;1.50;;;;;24.90;35.75;101703.97;4939323;28;45746;-43
2023/06/27 10:49:49;;;;;;;;;1.00;1.00;;;;;24.91;35.11;101703.00;4939271;28;45858;-43
2023/06/27 10:52:25;;;;;;;;;3.00;3.00;;;;;24.88;35.49;101703.19;4939361;28;45333;-41
2023/06/27 10:55:15;;;;;;;;;2.00;1.00;;;;;24.93;35.41;101708.22;4939522;28;45591;-45
2023/06/27 10:57:43;;;;;;;;;2.00;1.25;;;;;24.94;34.88;101713.44;4939046;28;46622;-54
2023/06/27 11:00:34;;;;;;;;;5.25;2.00;;;;;24.95;35.03;101707.19;4939151;28;45687;-47
2023/06/27 11:03:03;;;;;;;;;2.75;1.50;;;;;24.92;34.58;101704.72;4939481;28;45387;-41
2023/06/27 11:05:54;;;;;;;;;4.75;2.00;;;;;24.95;34.42;101706.34;4939727;28;45388;-51
2023/06/27 11:08:21;;;;;;;;;3.75;2.00;;;;;24.95;34.32;101709.84;4939080;28;46068;-46
2023/06/27 11:11:06;;;;;;;;;2.00;2.00;;;;;24.96;34.47;101697.44;4939021;28;45674;-45
2023/06/27 11:13:45;;;;;;;;;2.25;2.25;;;;;24.96;34.45;101698.31;4938958;28;45288;-42
2023/06/27 11:16:12;;;;;;;;;3.00;2.00;;;;;24.98;34.68;101692.91;4938122;28;45650;-45
2023/06/27 11:18:38;;;;;;;;;1.00;1.00;;;;;24.98;35.08;101696.38;4938928;28;47157;-42
2023/06/27 11:21:04;;;;;;;;;4.00;2.00;;;;;25.01;34.85;101706.81;4938835;28;45394;-41
2023/06/27 11:23:30;;;;;;;;;3.25;2.25;;;;;25.00;35.23;101689.19;4939102;28;45367;-41
2023/06/27 11:25:55;;;;;;;;;2.00;2.00;;;;;25.02;34.95;101686.47;4938784;28;45316;-46
2023/06/27 11:28:22;;;;;;;;;3.50;2.00;;;;;25.02;34.93;101689.13;4938836;28;45349;-45
2023/06/27 11:30:49;;;;;;;;;2.00;2.00;;;;;25.05;35.09;101688.06;4953415;28;45840;-41
2023/06/27 11:33:19;;;;;;;;;3.00;2.25;;;;;25.05;34.86;101680.94;4937296;28;45270;-44
2023/06/27 11:35:45;;;;;;;;;2.75;1.00;;;;;25.06;34.44;101684.47;4938884;28;45492;-45
2023/06/27 11:38:11;;;;;;;;;4.00;2.00;;;;;25.05;34.58;101678.31;4938548;28;46259;-41
2023/06/27 11:40:36;;;;;;;;;3.00;2.00;;;;;25.06;34.83;101682.66;4938685;28;45617;-46
2023/06/27 11:43:06;;;;;;;;;4.25;3.00;;;;;25.08;34.38;101679.94;4938788;28;45246;-46
2023/06/27 11:45:33;;;;;;;;;3.00;2.00;;;;;25.09;34.73;101681.59;4939057;28;45798;-45
2023/06/27 11:47:59;;;;;;;;;2.75;2.00;;;;;25.08;34.67;101677.28;4938577;28;46391;-44
2023/06/27 11:50:25;;;;;;;;;1.50;1.50;;;;;25.11;34.53;101674.41;4938302;28;45836;-45
2023/06/27 11:52:52;;;;;;;;;2.00;2.00;;;;;25.11;34.25;101674.41;4938564;28;45361;-43
2023/06/27 11:55:18;;;;;;;;;2.00;2.00;;;;;25.11;34.37;101669.09;4938846;28;45560;-42
2023/06/27 11:57:47;;;;;;;;;3.50;2.00;;;;;25.11;34.89;101664.69;4938358;28;45416;-47
2023/06/27 12:00:24;;;;;;;;;3.00;2.50;;;;;25.12;34.97;101649.59;4938319;28;45886;-50
2023/06/27 12:02:52;;;;;;;;;2.50;2.00;;;;;25.14;34.69;101658.31;4938204;28;45469;-42
2023/06/27 12:05:19;;;;;;;;;2.75;2.00;;;;;25.15;34.77;101652.06;4938506;28;45321;-44
2023/06/27 12:08:05;;;;;;;;;4.25;2.25;;;;;25.16;34.24;101656.44;4938156;28;46164;-51
2023/06/27 12:10:49;;;;;;;;;7.00;2.00;;;;;25.16;34.83;101662.56;4938055;28;45619;-47
2023/06/27 12:13:14;;;;;;;;;1.50;1.50;;;;;25.16;34.27;101657.25;4938327;28;45313;-45
2023/06/27 12:15:44;;;;;;;;;2.25;2.25;;;;;25.17;34.78;101656.31;4937160;28;45306;-50
2023/06/27 12:18:11;;;;;;;;;2.00;1.00;;;;;25.18;34.66;101651.88;4937974;28;46104;-43
2023/06/27 12:20:44;;;;;;;;;2.00;2.00;;;;;25.19;34.67;101653.56;4938118;28;45733;-43
2023/06/27 12:23:10;;;;;;;;;2.00;2.00;;;;;25.20;34.68;101643.81;4936834;28;45501;-43
2023/06/27 12:25:39;;;;;;;;;2.50;1.25;;;;;25.19;34.48;101642.94;4938282;28;45415;-43
2023/06/27 12:28:04;;;;;;;;;2.00;2.00;;;;;25.22;33.98;101649.88;4938309;28;46440;-44
2023/06/27 12:30:30;;;;;;;;;2.00;2.00;;;;;25.24;34.02;101653.31;4938160;28;45348;-43
2023/06/27 12:32:55;;;;;;;;;4.00;1.00;;;;;25.24;34.69;101643.53;4938042;28;45305;-46
2023/06/27 12:35:20;;;;;;;;;2.00;2.00;;;;;25.24;34.15;101638.22;4937978;28;45206;-43
2023/06/27 12:37:46;;;;;;;;;2.00;2.00;;;;;25.24;34.14;101635.56;4937846;28;45324;-50
2023/06/27 12:40:12;;;;;;;;;2.00;2.00;;;;;25.25;34.23;101631.09;4937866;28;45404;-42
2023/06/27 12:42:38;;;;;;;;;2.25;2.25;;;;;25.26;34.07;101631.03;4937789;28;45512;-45
2023/06/27 12:45:03;;;;;;;;;2.00;2.00;;;;;25.26;34.48;101628.38;4938264;28;45431;-48
2023/06/27 12:47:29;;;;;;;;;2.00;2.00;;;;;25.24;34.27;101617.00;4937527;28;46197;-48
2023/06/27 12:49:54;;;;;;;;;3.75;2.00;;;;;25.25;34.36;101626.66;4938677;28;47493;-41
2023/06/27 12:52:19;;;;;;;;;2.00;2.00;;;;;25.28;33.86;101631.78;4940995;28;45436;-43
2023/06/27 12:54:44;;;;;;;;;4.00;2.00;;;;;25.27;34.45;101618.59;4941229;28;45306;-49
2023/06/27 12:57:10;;;;;;;;;2.50;2.50;;;;;25.28;34.50;101618.53;4940645;28;51052;-52
2023/06/27 12:59:35;;;;;;;;;2.00;2.00;;;;;25.27;34.21;101619.47;4941242;28;45353;-50
2023/06/27 13:02:01;;;;;;;;;2.50;2.50;;;;;25.29;34.36;101614.06;4941060;28;45294;-47
2023/06/27 13:04:29;;;;;;;;;2.50;1.50;;;;;25.30;34.28;101610.44;4941069;28;45488;-52
2023/06/27 13:06:55;;;;;;;;;3.25;2.00;;;;;25.30;34.12;101611.28;4939457;28;46578;-50
2023/06/27 13:09:21;;;;;;;;;3.00;2.00;;;;;25.31;34.45;101613.00;4940802;28;45381;-42
2023/06/27 13:11:46;;;;;;;;;2.75;2.00;;;;;25.31;34.45;101605.03;4940838;28;45443;-47
2023/06/27 13:14:11;;;;;;;;;1.25;1.25;;;;;25.29;34.24;101606.97;4940574;28;51979;-53
2023/06/27 13:16:37;;;;;;;;;1.25;1.25;;;;;25.31;34.02;101605.03;4941023;28;46045;-48
2023/06/27 13:19:05;;;;;;;;;2.50;2.00;;;;;25.32;33.96;101598.78;4940908;28;45374;-48